createdAt,value
2018-02-20T00:01:30.494Z,5.30
2018-02-20T00:03:59.236Z,5.40
2018-02-20T00:06:26.770Z,5.40
2018-02-20T00:08:54.203Z,5.40
2018-02-20T00:11:22.410Z,5.40
2018-02-20T00:13:49.837Z,5.30
2018-02-20T00:16:18.047Z,5.40
2018-02-20T00:18:45.490Z,5.30
2018-02-20T00:21:12.929Z,5.40
2018-02-20T00:23:41.124Z,5.30
2018-02-20T00:26:08.568Z,5.20
2018-02-20T00:28:36.774Z,5.30
2018-02-20T00:31:04.827Z,5.20
2018-02-20T00:33:32.311Z,5.40
2018-02-20T00:35:59.741Z,5.40
2018-02-20T00:38:27.167Z,5.30
2018-02-20T00:40:54.608Z,5.30
2018-02-20T00:43:22.034Z,5.30
2018-02-20T00:45:49.479Z,5.30
2018-02-20T00:48:16.888Z,5.30
2018-02-20T00:50:44.329Z,5.30
2018-02-20T00:53:12.517Z,5.10
2018-02-20T00:55:39.959Z,5.10
2018-02-20T00:58:07.387Z,5.10
2018-02-20T01:00:34.809Z,5.10
2018-02-20T01:03:03.013Z,4.90
2018-02-20T01:05:30.445Z,4.90
2018-02-20T01:07:58.640Z,4.90
2018-02-20T01:10:26.078Z,4.90
2018-02-20T01:12:54.264Z,4.80
2018-02-20T01:15:21.701Z,4.80
2018-02-20T01:17:49.143Z,4.90
2018-02-20T01:20:16.585Z,4.80
2018-02-20T01:22:44.029Z,4.70
2018-02-20T01:25:11.471Z,4.70
2018-02-20T01:27:38.917Z,4.70
2018-02-20T01:30:06.336Z,4.60
2018-02-20T01:32:33.757Z,4.50
2018-02-20T01:35:01.200Z,4.50
2018-02-20T01:37:28.641Z,4.50
2018-02-20T01:39:56.088Z,4.50
2018-02-20T01:42:23.529Z,4.40
2018-02-20T01:44:51.729Z,4.40
2018-02-20T01:47:19.158Z,4.40
2018-02-20T01:49:47.917Z,4.40
2018-02-20T01:52:15.346Z,4.30
2018-02-20T01:54:42.793Z,4.30
2018-02-20T01:57:10.212Z,4.40
2018-02-20T01:59:37.673Z,4.30
2018-02-20T02:02:05.509Z,4.30
2018-02-20T02:04:32.952Z,4.30
2018-02-20T02:07:00.384Z,4.20
2018-02-20T02:09:27.825Z,4.20
2018-02-20T02:11:56.031Z,4.20
2018-02-20T02:14:23.469Z,4.20
2018-02-20T02:16:50.916Z,4.30
2018-02-20T02:19:19.107Z,4.10
2018-02-20T02:21:46.532Z,4.10
2018-02-20T02:24:14.737Z,4.30
2018-02-20T02:26:42.179Z,4.30
2018-02-20T02:29:10.384Z,4.40
2018-02-20T02:31:37.823Z,4.40
2018-02-20T02:34:05.579Z,4.50
2018-02-20T02:36:33.774Z,4.40
2018-02-20T02:39:01.204Z,4.40
2018-02-20T02:41:29.406Z,4.40
2018-02-20T02:43:56.830Z,4.40
2018-02-20T02:46:25.034Z,4.40
2018-02-20T02:48:52.470Z,4.40
2018-02-20T02:51:20.666Z,4.30
2018-02-20T02:53:48.102Z,4.30
2018-02-20T02:56:16.314Z,4.30
2018-02-20T02:58:43.752Z,4.30
2018-02-20T03:01:11.953Z,4.20
2018-02-20T03:03:39.389Z,4.20
2018-02-20T03:06:06.869Z,4.20
2018-02-20T03:08:34.294Z,4.20
2018-02-20T03:11:01.774Z,4.20
2018-02-20T03:13:29.180Z,4.10
2018-02-20T03:15:56.628Z,4.10
2018-02-20T03:18:24.066Z,4.10
2018-02-20T03:20:51.603Z,4.00
2018-02-20T03:23:19.069Z,3.90
2018-02-20T03:25:46.505Z,3.90
2018-02-20T03:28:13.933Z,3.80
2018-02-20T03:30:42.139Z,3.80
2018-02-20T03:33:09.571Z,3.80
2018-02-20T03:35:37.769Z,3.70
2018-02-20T03:38:05.881Z,3.70
2018-02-20T03:40:33.328Z,3.80
2018-02-20T03:43:01.521Z,3.90
2018-02-20T03:45:30.469Z,3.90
2018-02-20T03:47:57.897Z,3.80
2018-02-20T03:50:26.105Z,3.70
2018-02-20T03:52:53.537Z,3.70
2018-02-20T03:55:21.729Z,3.70
2018-02-20T03:57:49.166Z,3.70
2018-02-20T04:00:17.381Z,3.60
2018-02-20T04:02:44.813Z,3.60
2018-02-20T04:05:12.253Z,3.50
2018-02-20T04:07:40.453Z,3.50
2018-02-20T04:10:07.885Z,3.50
2018-02-20T04:12:36.109Z,3.50
2018-02-20T04:15:03.530Z,3.50
2018-02-20T04:17:30.974Z,3.50
2018-02-20T04:19:58.396Z,3.50
2018-02-20T04:22:25.840Z,3.40
2018-02-20T04:24:53.262Z,3.40
2018-02-20T04:27:21.467Z,3.40
2018-02-20T04:29:48.921Z,3.40
2018-02-20T04:32:16.328Z,3.40
2018-02-20T04:34:44.525Z,3.20
2018-02-20T04:37:11.973Z,3.20
2018-02-20T04:39:40.183Z,3.20
2018-02-20T04:42:07.621Z,3.20
2018-02-20T04:44:35.037Z,3.10
2018-02-20T04:47:02.464Z,3.20
2018-02-20T04:49:29.915Z,3.10
2018-02-20T04:51:57.357Z,3.20
2018-02-20T04:54:24.856Z,3.20
2018-02-20T04:56:52.276Z,3.20
2018-02-20T04:59:19.680Z,3.10
2018-02-20T05:01:47.145Z,3.10
2018-02-20T05:04:14.545Z,3.00
2018-02-20T05:06:41.976Z,3.00
2018-02-20T05:09:10.164Z,3.00
2018-02-20T05:11:37.595Z,3.00
2018-02-20T05:14:06.785Z,3.00
2018-02-20T05:16:34.204Z,3.00
2018-02-20T05:19:01.634Z,2.90
2018-02-20T05:21:29.872Z,3.00
2018-02-20T05:23:57.323Z,2.90
2018-02-20T05:26:24.987Z,2.90
2018-02-20T05:28:52.392Z,3.00
2018-02-20T05:31:19.820Z,2.90
2018-02-20T05:33:48.019Z,2.90
2018-02-20T05:36:15.956Z,2.90
2018-02-20T05:38:43.395Z,3.00
2018-02-20T05:41:10.819Z,2.90
2018-02-20T05:43:38.253Z,2.90
2018-02-20T05:46:06.282Z,2.90
2018-02-20T05:48:33.720Z,3.00
2018-02-20T05:51:01.142Z,2.90
2018-02-20T05:53:28.587Z,2.90
2018-02-20T05:55:56.764Z,2.90
2018-02-20T05:58:24.972Z,2.80
2018-02-20T06:00:52.404Z,2.80
2018-02-20T06:03:19.840Z,2.70
2018-02-20T06:05:48.028Z,2.70
2018-02-20T06:08:16.222Z,2.60
2018-02-20T06:10:43.644Z,2.60
2018-02-20T06:13:11.085Z,2.60
2018-02-20T06:15:38.537Z,2.60
2018-02-20T06:18:06.441Z,2.60
2018-02-20T06:20:34.631Z,2.60
2018-02-20T06:23:02.128Z,2.60
2018-02-20T06:25:29.549Z,2.60
2018-02-20T06:27:56.989Z,2.60
2018-02-20T06:30:25.188Z,2.60
2018-02-20T06:32:52.609Z,2.60
2018-02-20T06:35:20.792Z,2.50
2018-02-20T06:37:48.994Z,2.60
2018-02-20T06:40:16.421Z,2.50
2018-02-20T06:42:44.616Z,2.60
2018-02-20T06:45:12.042Z,2.60
2018-02-20T06:47:39.468Z,2.60
2018-02-20T06:50:06.901Z,2.50
2018-02-20T06:52:34.332Z,2.50
2018-02-20T06:55:03.165Z,2.70
2018-02-20T06:57:30.594Z,2.70
2018-02-20T06:59:58.025Z,2.80
2018-02-20T07:02:26.230Z,2.90
2018-02-20T07:04:53.654Z,2.80
2018-02-20T07:07:21.097Z,2.90
2018-02-20T07:09:48.540Z,3.00
2018-02-20T07:12:15.949Z,3.00
2018-02-20T07:14:43.409Z,3.10
2018-02-20T07:17:10.805Z,3.10
2018-02-20T07:19:38.244Z,3.00
2018-02-20T07:22:07.345Z,3.30
2018-02-20T07:24:34.776Z,3.20
2018-02-20T07:27:02.222Z,3.40
2018-02-20T07:29:30.437Z,3.50
2018-02-20T07:31:57.860Z,3.50
2018-02-20T07:34:25.301Z,3.60
2018-02-20T07:36:54.280Z,3.60
2018-02-20T07:39:21.698Z,3.60
2018-02-20T07:41:49.117Z,3.60
2018-02-20T07:44:17.326Z,3.80
2018-02-20T07:46:44.750Z,3.70
2018-02-20T07:49:12.969Z,4.00
2018-02-20T07:51:40.402Z,4.00
2018-02-20T07:54:07.830Z,4.20
2018-02-20T07:56:36.030Z,4.40
2018-02-20T07:59:03.449Z,4.40
2018-02-20T08:01:30.882Z,4.70
2018-02-20T08:03:58.319Z,5.10
2018-02-20T08:06:25.775Z,5.70
2018-02-20T08:08:53.202Z,6.30
2018-02-20T08:11:21.391Z,8.00
2018-02-20T08:13:48.826Z,8.00
2018-02-20T08:16:17.053Z,10.00
2018-02-20T08:18:44.480Z,10.00
2018-02-20T08:21:11.918Z,10.70
2018-02-20T08:23:40.111Z,12.00
2018-02-20T08:26:07.566Z,12.00
2018-02-20T08:28:35.755Z,12.90
2018-02-20T08:31:03.181Z,12.90
2018-02-20T08:33:31.381Z,13.30
2018-02-20T08:35:59.577Z,12.80
2018-02-20T08:38:27.008Z,12.80
2018-02-20T08:40:54.444Z,12.60
2018-02-20T08:43:22.677Z,12.80
2018-02-20T08:45:50.089Z,12.80
2018-02-20T08:48:17.607Z,12.70
2018-02-20T08:50:45.017Z,12.90
2018-02-20T08:53:12.466Z,13.90
2018-02-20T08:55:39.901Z,14.50
2018-02-20T08:58:07.340Z,15.20
2018-02-20T09:00:34.772Z,15.60
2018-02-20T09:03:02.218Z,16.50
2018-02-20T09:05:29.648Z,17.10
2018-02-20T09:07:57.097Z,17.70
2018-02-20T09:10:24.517Z,17.70
2018-02-20T09:12:51.974Z,18.40
2018-02-20T09:15:19.457Z,19.50
2018-02-20T09:17:46.828Z,19.00
2018-02-20T09:20:15.044Z,19.80
2018-02-20T09:22:42.480Z,19.80
2018-02-20T09:25:09.925Z,20.60
2018-02-20T09:27:38.122Z,21.70
2018-02-20T09:30:05.548Z,21.60
2018-02-20T09:32:33.760Z,21.90
2018-02-20T09:35:01.194Z,21.80
2018-02-20T09:37:28.632Z,21.70
2018-02-20T09:39:56.850Z,21.30
2018-02-20T09:42:24.284Z,21.30
2018-02-20T09:44:51.716Z,21.40
2018-02-20T09:47:19.929Z,22.50
2018-02-20T09:49:47.358Z,22.50
2018-02-20T09:52:15.552Z,24.40
2018-02-20T09:54:42.989Z,24.30
2018-02-20T09:57:11.181Z,22.80
2018-02-20T09:59:38.622Z,22.80
2018-02-20T10:02:07.754Z,23.00
2018-02-20T10:04:35.176Z,23.00
2018-02-20T10:07:03.376Z,22.60
2018-02-20T10:09:30.816Z,22.50
2018-02-20T10:11:59.013Z,22.60
2018-02-20T10:14:26.450Z,22.60
2018-02-20T10:16:54.652Z,22.60
2018-02-20T10:19:22.096Z,22.60
2018-02-20T10:21:49.526Z,22.50
2018-02-20T10:24:17.734Z,23.30
2018-02-20T10:26:45.161Z,23.20
2018-02-20T10:29:13.357Z,23.20
2018-02-20T10:31:40.809Z,23.10
2018-02-20T10:34:08.258Z,22.70
2018-02-20T10:36:36.454Z,22.40
2018-02-20T10:39:03.881Z,22.40
2018-02-20T10:41:32.097Z,22.50
2018-02-20T10:43:59.544Z,22.50
2018-02-20T10:46:26.978Z,22.80
2018-02-20T10:48:55.169Z,21.70
2018-02-20T10:51:22.601Z,21.60
2018-02-20T10:53:50.804Z,22.30
2018-02-20T10:56:18.276Z,22.30
2018-02-20T10:58:45.689Z,22.50
2018-02-20T11:01:13.902Z,23.20
2018-02-20T11:03:41.331Z,23.20
2018-02-20T11:06:09.527Z,24.00
2018-02-20T11:08:36.956Z,23.90
2018-02-20T11:11:05.156Z,23.80
2018-02-20T11:13:32.589Z,23.80
2018-02-20T11:16:00.802Z,23.90
2018-02-20T11:18:28.270Z,23.90
2018-02-20T11:20:55.719Z,23.90
2018-02-20T11:23:23.169Z,23.40
2018-02-20T11:25:50.597Z,23.50
2018-02-20T11:28:18.797Z,23.50
2018-02-20T11:30:46.242Z,23.50
2018-02-20T11:33:14.771Z,24.60
2018-02-20T11:35:42.204Z,24.60
2018-02-20T11:38:09.642Z,24.70
2018-02-20T11:40:37.084Z,25.10
2018-02-20T11:43:05.274Z,26.30
2018-02-20T11:45:32.709Z,26.20
2018-02-20T11:48:00.906Z,26.50
2018-02-20T11:50:28.354Z,26.40
2018-02-20T11:52:56.549Z,26.10
2018-02-20T11:55:23.988Z,26.00
2018-02-20T11:57:52.193Z,24.50
2018-02-20T12:00:19.656Z,24.40
2018-02-20T12:02:47.165Z,24.70
2018-02-20T12:05:14.589Z,24.50
2018-02-20T12:07:42.045Z,24.20
2018-02-20T12:10:09.473Z,24.20
2018-02-20T12:12:36.904Z,24.30
2018-02-20T12:15:05.148Z,24.70
2018-02-20T12:17:32.569Z,24.70
2018-02-20T12:20:00.000Z,25.60
2018-02-20T12:22:28.210Z,25.50
2018-02-20T12:24:55.649Z,25.40
2018-02-20T12:27:23.083Z,24.80
2018-02-20T12:29:51.276Z,25.60
2018-02-20T12:32:18.713Z,25.60
2018-02-20T12:34:46.905Z,25.30
2018-02-20T12:37:14.335Z,25.20
2018-02-20T12:39:41.820Z,25.30
2018-02-20T12:42:10.039Z,24.70
2018-02-20T12:44:37.470Z,24.70
2018-02-20T12:47:04.897Z,24.70
2018-02-20T12:49:33.107Z,24.10
2018-02-20T12:52:00.555Z,24.00
2018-02-20T12:54:28.001Z,23.80
2018-02-20T12:56:55.441Z,23.70
2018-02-20T12:59:23.637Z,24.00
2018-02-20T13:01:52.081Z,24.00
2018-02-20T13:04:19.522Z,24.00
2018-02-20T13:06:46.978Z,24.20
2018-02-20T13:09:14.421Z,23.90
2018-02-20T13:11:42.641Z,23.50
2018-02-20T13:14:10.833Z,23.60
2018-02-20T13:16:38.268Z,23.50
2018-02-20T13:19:05.706Z,23.50
2018-02-20T13:21:33.157Z,23.90
2018-02-20T13:24:00.589Z,23.90
2018-02-20T13:26:28.041Z,23.80
2018-02-20T13:28:55.472Z,24.20
2018-02-20T13:31:23.679Z,23.50
2018-02-20T13:33:51.120Z,23.50
2018-02-20T13:36:18.554Z,23.80
2018-02-20T13:38:46.740Z,23.70
2018-02-20T13:41:14.195Z,23.60
2018-02-20T13:43:42.385Z,22.70
2018-02-20T13:46:09.820Z,22.70
2018-02-20T13:48:38.040Z,23.00
2018-02-20T13:51:05.498Z,23.00
2018-02-20T13:53:32.923Z,22.30
2018-02-20T13:56:00.352Z,22.10
2018-02-20T13:58:27.801Z,22.30
2018-02-20T14:00:55.245Z,22.20
2018-02-20T14:03:22.690Z,22.50
2018-02-20T14:05:50.177Z,22.50
2018-02-20T14:08:17.605Z,22.60
2018-02-20T14:10:45.068Z,22.90
2018-02-20T14:13:12.505Z,22.10
2018-02-20T14:15:39.945Z,22.40
2018-02-20T14:18:08.100Z,22.40
2018-02-20T14:20:36.293Z,22.00
2018-02-20T14:23:03.737Z,22.00
2018-02-20T14:25:31.940Z,21.00
2018-02-20T14:27:59.364Z,20.90
2018-02-20T14:30:27.576Z,20.50
2018-02-20T14:32:55.022Z,20.50
2018-02-20T14:35:22.477Z,20.20
2018-02-20T14:37:49.919Z,20.30
2018-02-20T14:40:18.129Z,19.70
2018-02-20T14:42:45.569Z,19.70
2018-02-20T14:45:13.006Z,19.60
2018-02-20T14:47:41.316Z,19.10
2018-02-20T14:50:10.297Z,18.60
2018-02-20T14:52:37.721Z,18.50
2018-02-20T14:55:05.926Z,17.60
2018-02-20T14:57:33.383Z,17.60
2018-02-20T15:00:00.805Z,17.20
2018-02-20T15:02:28.256Z,16.00
2018-02-20T15:04:55.686Z,15.40
2018-02-20T15:07:23.125Z,14.90
2018-02-20T15:09:50.553Z,14.50
2018-02-20T15:12:18.768Z,14.40
2018-02-20T15:14:46.200Z,14.30
2018-02-20T15:17:13.632Z,14.40
2018-02-20T15:19:41.846Z,14.00
2018-02-20T15:22:09.281Z,14.00
2018-02-20T15:24:36.717Z,13.80
2018-02-20T15:27:04.192Z,13.40
2018-02-20T15:29:32.373Z,13.40
2018-02-20T15:31:59.808Z,13.40
2018-02-20T15:34:28.018Z,13.30
2018-02-20T15:36:55.463Z,13.30
2018-02-20T15:39:23.702Z,13.80
2018-02-20T15:41:51.126Z,13.80
2018-02-20T15:44:18.556Z,13.90
2018-02-20T15:46:45.989Z,13.90
2018-02-20T15:49:14.192Z,13.40
2018-02-20T15:51:41.614Z,13.40
2018-02-20T15:54:09.052Z,13.20
2018-02-20T15:56:36.515Z,13.10
2018-02-20T15:59:03.915Z,12.90
2018-02-20T16:01:31.350Z,12.50
2018-02-20T16:03:58.800Z,12.60
2018-02-20T16:06:26.540Z,12.60
2018-02-20T16:08:53.975Z,12.60
2018-02-20T16:11:21.401Z,12.40
2018-02-20T16:13:50.204Z,12.00
2018-02-20T16:16:19.302Z,12.10
2018-02-20T16:18:46.729Z,12.10
2018-02-20T16:21:14.979Z,11.60
2018-02-20T16:23:42.427Z,11.50
2018-02-20T16:26:09.848Z,11.40
2018-02-20T16:28:37.296Z,11.30
2018-02-20T16:31:05.506Z,11.20
2018-02-20T16:33:32.953Z,11.20
2018-02-20T16:36:00.393Z,11.20
2018-02-20T16:38:27.842Z,11.40
2018-02-20T16:40:56.033Z,10.90
2018-02-20T16:43:23.485Z,10.90
2018-02-20T16:45:50.921Z,10.50
2018-02-20T16:48:19.135Z,10.50
2018-02-20T16:50:46.575Z,10.50
2018-02-20T16:53:15.134Z,10.30
2018-02-20T16:55:43.334Z,10.40
2018-02-20T16:58:10.790Z,10.30
2018-02-20T17:00:38.222Z,10.10
2018-02-20T17:03:05.666Z,10.10
2018-02-20T17:05:33.089Z,10.00
2018-02-20T17:08:00.534Z,10.10
2018-02-20T17:10:28.153Z,9.80
2018-02-20T17:12:56.388Z,9.80
2018-02-20T17:15:23.833Z,9.70
2018-02-20T17:17:51.270Z,10.00
2018-02-20T17:20:18.756Z,10.00
2018-02-20T17:22:46.188Z,9.80
2018-02-20T17:25:14.378Z,9.80
2018-02-20T17:27:41.799Z,9.70
2018-02-20T17:30:09.993Z,9.60
2018-02-20T17:32:37.416Z,9.60
2018-02-20T17:35:04.850Z,9.40
2018-02-20T17:37:32.281Z,9.20
2018-02-20T17:39:59.733Z,9.00
2018-02-20T17:42:27.190Z,9.20
2018-02-20T17:44:54.603Z,8.80
2018-02-20T17:47:22.036Z,9.00
2018-02-20T17:49:49.495Z,9.00
2018-02-20T17:52:17.705Z,9.00
2018-02-20T17:54:45.903Z,9.10
2018-02-20T17:57:13.356Z,9.10
2018-02-20T17:59:41.557Z,8.80
2018-02-20T18:02:09.254Z,8.80
2018-02-20T18:04:36.682Z,8.70
2018-02-20T18:07:04.134Z,8.70
2018-02-20T18:09:31.568Z,8.70
2018-02-20T18:11:58.986Z,8.70
2018-02-20T18:14:26.447Z,8.60
2018-02-20T18:16:53.871Z,8.70
2018-02-20T18:19:21.303Z,8.70
2018-02-20T18:21:48.728Z,8.70
2018-02-20T18:24:16.945Z,8.70
2018-02-20T18:26:44.377Z,8.70
2018-02-20T18:29:12.578Z,8.50
2018-02-20T18:31:40.000Z,8.50
2018-02-20T18:34:09.111Z,8.70
2018-02-20T18:36:36.552Z,8.70
2018-02-20T18:39:04.763Z,8.70
2018-02-20T18:41:32.197Z,8.70
2018-02-20T18:43:59.643Z,8.60
2018-02-20T18:46:27.830Z,8.50
2018-02-20T18:48:56.021Z,8.50
2018-02-20T18:51:23.449Z,8.50
2018-02-20T18:53:51.641Z,8.30
2018-02-20T18:56:19.073Z,8.30
2018-02-20T18:58:47.294Z,8.40
2018-02-20T19:01:14.732Z,8.30
2018-02-20T19:03:42.153Z,8.20
2018-02-20T19:06:09.907Z,8.20
2018-02-20T19:08:37.334Z,8.20
2018-02-20T19:11:04.756Z,8.10
2018-02-20T19:13:32.945Z,8.10
2018-02-20T19:16:00.374Z,8.10
2018-02-20T19:18:28.574Z,8.00
2018-02-20T19:20:56.001Z,8.00
2018-02-20T19:23:23.421Z,7.90
2018-02-20T19:25:50.854Z,7.90
2018-02-20T19:28:18.278Z,7.90
2018-02-20T19:30:45.721Z,7.90
2018-02-20T19:33:13.152Z,7.90
2018-02-20T19:35:40.598Z,7.90
2018-02-20T19:38:08.023Z,7.70
2018-02-20T19:40:35.452Z,7.50
2018-02-20T19:43:02.914Z,7.50
2018-02-20T19:45:30.346Z,7.50
2018-02-20T19:47:57.777Z,7.50
2018-02-20T19:50:25.203Z,7.60
2018-02-20T19:52:53.389Z,7.60
2018-02-20T19:55:20.822Z,7.60
2018-02-20T19:57:48.353Z,7.50
2018-02-20T20:00:15.888Z,7.50
2018-02-20T20:02:43.302Z,7.50
2018-02-20T20:05:11.522Z,7.30
2018-02-20T20:07:38.953Z,7.30
2018-02-20T20:10:06.380Z,7.30
2018-02-20T20:12:33.809Z,7.20
2018-02-20T20:15:01.254Z,7.10
2018-02-20T20:17:28.997Z,6.90
2018-02-20T20:19:56.425Z,6.80
2018-02-20T20:22:24.628Z,6.90
2018-02-20T20:24:52.047Z,6.90
2018-02-20T20:27:19.482Z,6.90
2018-02-20T20:29:46.923Z,6.90
2018-02-20T20:32:14.373Z,6.90
2018-02-20T20:34:41.791Z,6.90
2018-02-20T20:37:10.829Z,6.80
2018-02-20T20:39:38.260Z,6.80
2018-02-20T20:42:05.714Z,6.70
2018-02-20T20:44:33.929Z,6.50
2018-02-20T20:47:01.369Z,6.50
2018-02-20T20:49:28.834Z,6.50
2018-02-20T20:51:56.286Z,6.40
2018-02-20T20:54:23.808Z,6.40
2018-02-20T20:56:52.001Z,6.30
2018-02-20T20:59:19.455Z,6.30
2018-02-20T21:01:47.665Z,6.30
2018-02-20T21:04:15.089Z,6.30
2018-02-20T21:06:42.508Z,6.20
2018-02-20T21:09:10.169Z,6.20
2018-02-20T21:11:37.603Z,6.20
2018-02-20T21:14:05.033Z,6.30
2018-02-20T21:16:32.460Z,6.20
2018-02-20T21:19:00.678Z,6.10
2018-02-20T21:21:28.156Z,6.10
2018-02-20T21:23:55.531Z,6.10
2018-02-20T21:26:22.972Z,6.10
2018-02-20T21:28:50.404Z,6.00
2018-02-20T21:31:17.866Z,6.10
2018-02-20T21:33:45.309Z,5.90
2018-02-20T21:36:12.761Z,5.90
2018-02-20T21:38:41.084Z,5.90
2018-02-20T21:41:08.618Z,5.80
2018-02-20T21:43:36.038Z,5.80
2018-02-20T21:46:04.242Z,5.80
2018-02-20T21:48:31.670Z,5.70
2018-02-20T21:50:59.892Z,5.70
2018-02-20T21:53:27.335Z,5.70
2018-02-20T21:55:54.765Z,5.70
2018-02-20T21:58:23.008Z,5.70
2018-02-20T22:00:50.442Z,5.70
2018-02-20T22:03:17.879Z,5.70
2018-02-20T22:05:45.314Z,5.50
2018-02-20T22:08:13.496Z,5.50
2018-02-20T22:10:40.936Z,5.50
2018-02-20T22:13:09.125Z,5.50
2018-02-20T22:15:36.546Z,5.50
2018-02-20T22:18:03.979Z,5.50
2018-02-20T22:20:31.421Z,5.40
2018-02-20T22:22:58.840Z,5.40
2018-02-20T22:25:27.024Z,5.40
2018-02-20T22:27:54.457Z,5.30
2018-02-20T22:30:21.880Z,5.30
2018-02-20T22:32:49.341Z,5.30
2018-02-20T22:35:16.786Z,5.20
2018-02-20T22:37:44.219Z,5.20
2018-02-20T22:40:11.638Z,5.20
2018-02-20T22:42:39.100Z,5.20
2018-02-20T22:45:06.529Z,5.20
2018-02-20T22:47:33.959Z,5.20
2018-02-20T22:50:01.417Z,5.20
2018-02-20T22:52:28.845Z,5.20
2018-02-20T22:54:57.053Z,5.20
2018-02-20T22:57:24.473Z,5.20
2018-02-20T22:59:52.665Z,5.30
2018-02-20T23:02:20.106Z,5.20
2018-02-20T23:04:48.566Z,5.20
2018-02-20T23:07:16.010Z,5.20
2018-02-20T23:09:43.443Z,5.30
2018-02-20T23:12:10.866Z,5.30
2018-02-20T23:14:39.097Z,5.40
2018-02-20T23:17:06.533Z,5.40
2018-02-20T23:19:34.529Z,5.40
2018-02-20T23:22:01.956Z,5.50
2018-02-20T23:24:29.386Z,5.50
2018-02-20T23:26:57.602Z,5.60
2018-02-20T23:29:25.031Z,5.60
2018-02-20T23:31:52.478Z,5.40
2018-02-20T23:34:20.694Z,5.70
2018-02-20T23:36:48.121Z,5.60
2018-02-20T23:39:15.550Z,5.70
2018-02-20T23:41:43.746Z,5.90
2018-02-20T23:44:11.224Z,5.90
2018-02-20T23:46:38.649Z,5.90
2018-02-20T23:49:06.856Z,6.00
2018-02-20T23:51:35.036Z,6.00
2018-02-20T23:54:02.484Z,6.10
2018-02-20T23:56:29.900Z,6.00
2018-02-20T23:58:57.371Z,6.00
